Time;durP1;ratioP1;P1;durP2;ratioP2;P2;SDS_P1;SDS_P2;PMS_P1;PMS_P2;Temp;Humidity;BMP_temperature;BMP_pressure;BME280_temperature;BME280_humidity;BME280_pressure;Samples;Min_cycle;Max_cycle;Signal;HPM_P1;HPM_P2
2022/01/27 00:01:27;;;;;;;26.70;16.00;;;;;;;3.25;70.77;99621.21;221387;1274;142321;-60
2022/01/27 00:06:19;;;;;;;26.40;14.80;;;;;;;3.26;70.94;99623.46;221353;1276;139420;-60
2022/01/27 00:11:22;;;;;;;38.20;21.40;;;;;;;3.28;70.91;99617.83;221298;1274;139316;-64
2022/01/27 00:16:28;;;;;;;34.30;21.40;;;;;;;3.22;70.88;99619.69;221312;1274;139023;-61
2022/01/27 00:21:31;;;;;;;35.50;20.00;;;;;;;3.13;70.80;99638.84;221408;1276;139631;-60
2022/01/27 00:26:34;;;;;;;31.50;17.40;;;;;;;3.12;70.96;99651.34;221451;1276;139963;-62
2022/01/27 00:31:38;;;;;;;28.40;17.50;;;;;;;3.12;70.91;99654.65;221271;1274;139658;-61
2022/01/27 00:36:41;;;;;;;30.90;17.90;;;;;;;3.11;71.02;99659.07;221313;1276;138925;-61
2022/01/27 00:41:44;;;;;;;28.00;17.00;;;;;;;3.07;71.14;99657.72;221453;1275;140088;-59
2022/01/27 00:46:47;;;;;;;32.30;18.80;;;;;;;3.02;70.98;99655.39;221376;1276;138944;-56
2022/01/27 00:51:50;;;;;;;28.80;17.10;;;;;;;2.89;70.87;99654.80;221320;1274;139732;-60
2022/01/27 00:57:02;;;;;;;28.00;16.40;;;;;;;2.83;71.14;99648.61;221197;1276;140745;-61
2022/01/27 01:02:20;;;;;;;25.40;15.60;;;;;;;2.82;71.33;99654.41;221197;1276;140363;-59
2022/01/27 01:07:23;;;;;;;33.10;17.90;;;;;;;2.80;71.33;99656.89;221320;1276;139485;-59
2022/01/27 01:18:01;;;;;;;31.20;17.90;;;;;;;2.69;71.32;99636.29;221360;1276;140169;-60
2022/01/27 01:34:10;;;;;;;28.30;17.90;;;;;;;2.69;71.43;99620.88;221478;1276;140261;-60
2022/01/27 01:39:14;;;;;;;28.30;17.00;;;;;;;2.68;71.55;99614.05;221385;1276;139286;-60
2022/01/27 01:44:17;;;;;;;30.30;18.20;;;;;;;2.68;71.66;99614.77;221213;1275;139332;-64
2022/01/27 01:49:25;;;;;;;25.40;16.00;;;;;;;2.67;71.68;99613.73;221144;1276;139838;-62
2022/01/27 01:54:29;;;;;;;27.90;16.00;;;;;;;2.69;71.53;99608.27;221145;1277;140925;-60
2022/01/27 01:59:32;;;;;;;27.40;16.30;;;;;;;2.65;71.57;99598.52;221354;1275;139470;-59
2022/01/27 02:04:34;;;;;;;29.50;17.70;;;;;;;2.60;71.65;99595.47;221431;1275;139360;-61
2022/01/27 02:20:21;;;;;;;28.10;16.40;;;;;;;2.50;71.98;99583.06;221362;1275;141499;-59
2022/01/27 02:25:24;;;;;;;25.50;14.70;;;;;;;2.53;72.03;99587.74;221360;1276;139135;-59
2022/01/27 02:30:27;;;;;;;26.20;16.50;;;;;;;2.49;71.98;99583.45;221371;1275;139757;-59
2022/01/27 02:35:32;;;;;;;19.70;12.40;;;;;;;2.39;71.90;99572.79;221328;1275;140287;-60
2022/01/27 02:40:43;;;;;;;27.50;15.70;;;;;;;2.37;71.98;99570.74;221358;1275;139833;-58
2022/01/27 02:45:50;;;;;;;23.00;14.50;;;;;;;2.37;72.09;99568.98;221292;1276;139459;-60
2022/01/27 02:50:53;;;;;;;26.30;15.70;;;;;;;2.37;72.16;99568.80;221539;1275;139501;-60
2022/01/27 02:55:56;;;;;;;23.20;15.10;;;;;;;2.32;71.98;99569.25;221421;1276;139771;-60
2022/01/27 03:00:59;;;;;;;26.90;14.90;;;;;;;2.29;72.04;99568.79;221370;1276;139762;-58
2022/01/27 03:06:02;;;;;;;25.00;17.20;;;;;;;2.28;72.15;99572.14;221461;1275;139326;-60
2022/01/27 03:11:11;;;;;;;29.70;19.20;;;;;;;2.29;72.21;99565.46;221201;1276;139343;-61
2022/01/27 03:16:14;;;;;;;31.80;17.30;;;;;;;2.32;72.10;99565.41;221312;1276;139083;-59
2022/01/27 03:21:17;;;;;;;29.40;18.40;;;;;;;2.31;71.96;99550.19;221370;1276;141446;-61
2022/01/27 03:26:21;;;;;;;29.00;18.20;;;;;;;2.29;71.98;99551.82;221100;1276;140180;-62
2022/01/27 03:31:24;;;;;;;28.40;18.30;;;;;;;2.27;71.90;99548.86;221144;1276;140284;-62
2022/01/27 03:36:27;;;;;;;22.50;15.50;;;;;;;2.24;71.90;99536.33;221359;1277;139587;-58
2022/01/27 03:41:33;;;;;;;23.70;15.30;;;;;;;2.27;71.97;99534.70;221104;1276;139682;-60
2022/01/27 03:46:36;;;;;;;25.00;15.40;;;;;;;2.31;72.04;99524.81;221398;1275;139928;-58
2022/01/27 03:51:40;;;;;;;20.50;13.30;;;;;;;2.34;71.97;99516.52;221368;1275;139199;-57
2022/01/27 03:56:43;;;;;;;24.20;14.20;;;;;;;2.37;71.92;99517.67;221346;1276;139668;-60
2022/01/27 04:01:46;;;;;;;20.40;15.00;;;;;;;2.34;71.80;99523.88;221143;1276;139495;-59
2022/01/27 04:06:52;;;;;;;19.40;13.50;;;;;;;2.34;71.81;99526.33;220982;1276;165728;-60
2022/01/27 04:11:55;;;;;;;20.50;13.50;;;;;;;2.34;71.85;99526.67;221047;1276;139617;-56
2022/01/27 04:16:58;;;;;;;20.40;13.70;;;;;;;2.37;71.88;99526.95;221308;1276;139606;-58
2022/01/27 04:22:02;;;;;;;19.00;12.70;;;;;;;2.36;71.77;99527.48;221410;1276;140201;-58
2022/01/27 04:27:15;;;;;;;17.80;11.90;;;;;;;2.33;71.76;99520.75;221580;1275;139879;-59
2022/01/27 04:32:24;;;;;;;24.50;14.40;;;;;;;2.29;71.79;99521.88;221232;1276;140135;-61
2022/01/27 04:37:28;;;;;;;19.30;13.40;;;;;;;2.28;71.98;99517.86;221448;1276;139329;-58
2022/01/27 04:43:38;;;;;;;19.50;13.70;;;;;;;2.25;71.73;99506.55;221335;1276;139731;-60
2022/01/27 04:48:10;;;;;;;22.30;14.20;;;;;;;2.15;71.75;99490.49;221262;1274;139692;-61
2022/01/27 04:53:23;;;;;;;20.20;13.10;;;;;;;2.08;72.08;99488.52;221375;1276;139080;-57
2022/01/27 04:58:50;;;;;;;20.60;13.10;;;;;;;2.02;72.04;99488.13;221389;1275;139802;-61
2022/01/27 05:04:00;;;;;;;19.60;14.40;;;;;;;2.12;72.91;99491.77;221298;1276;139234;-60
2022/01/27 05:09:04;;;;;;;21.90;14.00;;;;;;;2.30;72.58;99490.86;221453;1275;140285;-61
2022/01/27 05:14:23;;;;;;;19.60;13.40;;;;;;;2.22;72.20;99481.41;221316;1276;139128;-59
2022/01/27 05:19:26;;;;;;;19.20;12.70;;;;;;;2.10;72.20;99477.63;221351;1276;139752;-61
2022/01/27 05:24:29;;;;;;;24.20;15.40;;;;;;;2.03;72.36;99471.29;221349;1276;140737;-57
2022/01/27 05:29:32;;;;;;;22.50;12.90;;;;;;;2.09;72.78;99479.57;221387;1275;139129;-59
2022/01/27 05:34:35;;;;;;;22.80;14.30;;;;;;;2.02;72.43;99471.84;221327;1275;139937;-59
2022/01/27 05:39:38;;;;;;;23.50;15.50;;;;;;;1.96;72.41;99469.88;221206;1276;139784;-59
2022/01/27 05:44:41;;;;;;;21.30;14.40;;;;;;;1.94;72.57;99466.41;221162;1276;140423;-59
2022/01/27 05:49:44;;;;;;;20.40;13.00;;;;;;;1.90;72.57;99462.29;221318;1275;139704;-58
2022/01/27 05:54:47;;;;;;;22.10;13.90;;;;;;;1.93;72.62;99469.21;221323;1276;140268;-61
2022/01/27 05:59:51;;;;;;;25.80;15.40;;;;;;;1.94;72.75;99464.48;221361;1274;139629;-65
2022/01/27 06:04:54;;;;;;;21.60;14.90;;;;;;;1.93;72.71;99463.63;221366;1277;139566;-59
2022/01/27 06:09:57;;;;;;;24.20;15.80;;;;;;;1.90;72.66;99460.89;221258;1274;139846;-60
2022/01/27 06:15:00;;;;;;;25.00;15.90;;;;;;;1.90;72.69;99443.73;221472;1275;140410;-61
2022/01/27 06:20:04;;;;;;;25.90;16.50;;;;;;;1.91;72.74;99448.28;221404;1275;139404;-60
2022/01/27 06:25:09;;;;;;;26.30;15.50;;;;;;;1.92;72.70;99444.59;221115;1276;141076;-62
2022/01/27 06:30:12;;;;;;;23.50;15.00;;;;;;;1.97;72.51;99433.29;221320;1276;139828;-60
2022/01/27 06:35:15;;;;;;;25.70;16.10;;;;;;;1.98;72.74;99424.17;221301;1276;141268;-59
2022/01/27 06:40:18;;;;;;;31.40;16.10;;;;;;;2.05;72.72;99430.30;221406;1275;139806;-61
2022/01/27 06:45:21;;;;;;;28.60;16.90;;;;;;;2.10;72.62;99425.82;221401;1276;138823;-60
2022/01/27 06:50:24;;;;;;;24.50;16.30;;;;;;;2.15;72.50;99426.94;221196;1277;139853;-61
2022/01/27 06:55:27;;;;;;;29.40;16.20;;;;;;;2.18;72.52;99409.20;221205;1277;139991;-60
2022/01/27 07:00:30;;;;;;;28.50;17.20;;;;;;;2.23;72.42;99393.88;221412;1276;139112;-58
2022/01/27 07:05:34;;;;;;;31.80;19.40;;;;;;;2.27;72.40;99394.48;221384;1277;138851;-58
2022/01/27 07:10:37;;;;;;;31.10;19.00;;;;;;;2.33;72.38;99393.80;221308;1276;139540;-61
2022/01/27 07:15:40;;;;;;;26.80;17.10;;;;;;;2.42;72.20;99389.40;221291;1275;140186;-63
2022/01/27 07:20:45;;;;;;;27.20;17.00;;;;;;;2.47;72.10;99381.41;221407;1274;139673;-56
2022/01/27 07:25:48;;;;;;;26.90;17.70;;;;;;;2.51;72.02;99388.83;221341;1277;139561;-60
2022/01/27 07:30:51;;;;;;;30.30;18.70;;;;;;;2.54;71.95;99393.65;221397;1276;139693;-61
2022/01/27 07:35:54;;;;;;;29.30;18.40;;;;;;;2.55;71.75;99396.27;221476;1274;139674;-60
2022/01/27 07:40:57;;;;;;;30.90;18.90;;;;;;;2.57;71.79;99392.54;221371;1274;139460;-58
2022/01/27 07:46:00;;;;;;;27.80;17.10;;;;;;;2.64;71.74;99386.25;221386;1274;140163;-60
2022/01/27 07:51:04;;;;;;;27.50;18.50;;;;;;;2.66;71.55;99376.39;221555;1276;139669;-58
2022/01/27 07:56:07;;;;;;;30.10;18.40;;;;;;;2.66;71.30;99366.42;221326;1274;139223;-60
2022/01/27 08:01:10;;;;;;;31.80;19.10;;;;;;;2.68;71.58;99367.41;221414;1274;139189;-61
2022/01/27 08:06:13;;;;;;;29.00;18.40;;;;;;;2.71;71.39;99353.16;221371;1274;139237;-60
2022/01/27 08:11:18;;;;;;;30.80;19.00;;;;;;;2.71;71.33;99349.64;221452;1274;139407;-60
2022/01/27 08:16:21;;;;;;;33.10;18.20;;;;;;;2.74;71.27;99336.79;221385;1276;139222;-61
2022/01/27 08:21:24;;;;;;;33.60;17.80;;;;;;;2.84;71.32;99324.63;221468;1274;140010;-62
2022/01/27 08:26:43;;;;;;;27.60;16.40;;;;;;;2.96;71.28;99313.07;221334;1274;140054;-58
2022/01/27 08:37:01;;;;;;;25.00;14.90;;;;;;;3.09;70.90;99313.95;221314;1274;141707;-60
2022/01/27 08:42:05;;;;;;;26.80;15.60;;;;;;;3.11;70.84;99306.55;221397;1274;139660;-60
2022/01/27 08:47:11;;;;;;;24.60;14.10;;;;;;;3.18;70.87;99291.80;221235;1276;140847;-64
2022/01/27 08:52:15;;;;;;;23.80;15.00;;;;;;;3.20;70.46;99305.60;221447;1276;139133;-60
2022/01/27 08:57:18;;;;;;;26.80;16.10;;;;;;;3.21;70.35;99316.26;221465;1276;139274;-60
2022/01/27 09:02:21;;;;;;;28.20;16.60;;;;;;;3.22;70.47;99322.36;221300;1277;139528;-61
2022/01/27 09:07:24;;;;;;;27.30;15.30;;;;;;;3.22;70.21;99322.34;221358;1276;139623;-59
2022/01/27 09:12:27;;;;;;;28.30;15.20;;;;;;;3.22;70.15;99312.56;221254;1275;139768;-60
2022/01/27 09:17:38;;;;;;;27.00;15.10;;;;;;;3.27;70.31;99304.15;221380;1274;139715;-61
2022/01/27 09:22:41;;;;;;;27.20;15.80;;;;;;;3.35;70.30;99305.19;221204;1275;141809;-63
2022/01/27 09:27:46;;;;;;;25.30;16.20;;;;;;;3.40;70.16;99297.48;221164;1276;138666;-60
2022/01/27 09:32:49;;;;;;;27.10;15.30;;;;;;;3.45;70.20;99282.60;221516;1276;139209;-63
2022/01/27 09:37:53;;;;;;;28.40;15.20;;;;;;;3.46;69.92;99270.11;221298;1276;139815;-62
2022/01/27 09:42:56;;;;;;;27.40;15.30;;;;;;;3.51;69.84;99258.40;221325;1276;140233;-62
2022/01/27 09:48:10;;;;;;;28.10;16.30;;;;;;;3.53;69.74;99254.66;221364;1275;140225;-61
2022/01/27 09:53:14;;;;;;;25.00;16.10;;;;;;;3.51;69.65;99257.35;221312;1276;139597;-64
2022/01/27 09:58:17;;;;;;;29.30;15.80;;;;;;;3.53;69.76;99257.46;221333;1274;139185;-61
2022/01/27 10:03:20;;;;;;;24.90;15.40;;;;;;;3.56;69.64;99246.31;221429;1276;140150;-61
2022/01/27 10:08:23;;;;;;;201.60;107.60;;;;;;;3.61;69.56;99234.07;221292;1276;139159;-59
2022/01/27 10:13:40;;;;;;;27.50;15.70;;;;;;;3.78;69.94;99220.22;221148;1275;142309;-61
2022/01/27 10:18:44;;;;;;;23.00;13.50;;;;;;;3.83;69.28;99211.45;221308;1275;140238;-60
2022/01/27 10:23:51;;;;;;;21.20;13.60;;;;;;;3.74;69.00;99196.63;221316;1276;139437;-60
2022/01/27 10:29:04;;;;;;;21.40;12.50;;;;;;;3.62;68.76;99185.98;221343;1274;139822;-61
2022/01/27 10:34:10;;;;;;;22.20;13.30;;;;;;;3.49;68.87;99164.97;221204;1276;140257;-59
2022/01/27 10:39:22;;;;;;;24.00;12.60;;;;;;;3.44;69.02;99157.76;221341;1275;140025;-57
2022/01/27 10:44:33;;;;;;;19.40;12.10;;;;;;;3.40;68.81;99144.91;221123;1276;139705;-59
2022/01/27 10:49:42;;;;;;;21.20;12.20;;;;;;;3.39;68.74;99127.42;221248;1276;139998;-61
2022/01/27 10:55:00;;;;;;;19.50;11.70;;;;;;;3.34;68.58;99135.63;221353;1276;139080;-57
2022/01/27 11:00:32;;;;;;;22.10;13.30;;;;;;;3.28;68.63;99118.80;221324;1276;139604;-61
2022/01/27 11:05:43;;;;;;;21.20;12.50;;;;;;;3.28;68.65;99113.38;220638;1279;140298;-59
2022/01/27 11:10:49;;;;;;;19.10;11.10;;;;;;;3.30;68.79;99112.96;220581;1280;139493;-59
2022/01/27 11:15:54;;;;;;;19.50;11.20;;;;;;;3.33;68.69;99101.30;220579;1280;140159;-61
2022/01/27 11:21:09;;;;;;;18.00;10.30;;;;;;;3.33;68.46;99090.25;220718;1279;139118;-62
2022/01/27 11:26:16;;;;;;;18.80;10.20;;;;;;;3.30;68.33;99092.11;220536;1280;139609;-62
2022/01/27 11:32:04;;;;;;;17.60;9.90;;;;;;;3.31;68.20;99099.25;220675;1280;138975;-62
2022/01/27 11:37:07;;;;;;;16.70;9.80;;;;;;;3.28;68.03;99090.04;221223;1275;138698;-62
2022/01/27 11:42:10;;;;;;;14.40;9.10;;;;;;;3.25;67.98;99082.96;221300;1274;139627;-62
2022/01/27 11:47:18;;;;;;;16.10;9.00;;;;;;;3.25;67.84;99069.45;221368;1274;139742;-61
2022/01/27 11:52:33;;;;;;;33.30;15.80;;;;;;;3.23;67.66;99063.91;221186;1275;138633;-62
2022/01/27 11:57:38;;;;;;;16.10;9.50;;;;;;;3.25;67.75;99071.20;221150;1276;139020;-62
2022/01/27 12:02:56;;;;;;;17.30;8.80;;;;;;;3.28;67.77;99068.33;221403;1276;139153;-59
2022/01/27 12:08:15;;;;;;;15.50;8.90;;;;;;;3.30;67.69;99047.38;221254;1276;139166;-60
2022/01/27 12:13:56;;;;;;;13.80;8.50;;;;;;;3.32;67.61;99019.98;221177;1275;139983;-60
2022/01/27 12:19:03;;;;;;;19.00;9.70;;;;;;;3.31;67.37;99007.55;221295;1276;139626;-59
2022/01/27 12:24:17;;;;;;;17.40;9.90;;;;;;;3.30;67.40;99003.55;221298;1274;139073;-61
2022/01/27 12:29:22;;;;;;;18.50;9.00;;;;;;;3.31;67.00;98998.09;221346;1274;139602;-60
2022/01/27 12:34:26;;;;;;;18.50;8.70;;;;;;;3.24;66.81;98971.31;221191;1276;139715;-60
2022/01/27 12:39:35;;;;;;;14.90;9.00;;;;;;;3.16;66.88;98984.74;221420;1276;139357;-60
2022/01/27 12:44:58;;;;;;;13.70;7.20;;;;;;;3.12;66.99;98968.56;221307;1274;140821;-60
2022/01/27 12:50:20;;;;;;;17.40;9.10;;;;;;;3.13;66.84;98963.27;221390;1274;139105;-60
2022/01/27 12:55:30;;;;;;;16.80;8.00;;;;;;;3.13;66.90;98953.45;221248;1276;139183;-60
2022/01/27 13:00:44;;;;;;;18.00;8.90;;;;;;;3.15;66.71;98946.21;221299;1274;139754;-62
2022/01/27 13:05:50;;;;;;;15.60;8.60;;;;;;;3.16;66.67;98951.79;221287;1276;138965;-59
2022/01/27 13:10:56;;;;;;;;;;;;;;;3.15;66.63;98949.52;220984;1277;140944;-63
2022/01/27 13:16:04;;;;;;;;;;;;;;;3.18;66.78;98921.39;221306;1274;125533;-63
2022/01/27 13:21:23;;;;;;;15.60;9.30;;;;;;;3.18;66.70;98915.77;221492;1274;125473;-63
2022/01/27 13:26:26;;;;;;;18.30;8.90;;;;;;;3.17;66.70;98902.67;221007;1275;139068;-59
2022/01/27 13:31:30;;;;;;;24.20;11.50;;;;;;;3.19;66.83;98904.17;221386;1274;140192;-63
2022/01/27 13:36:36;;;;;;;17.50;9.00;;;;;;;3.24;66.77;98896.30;221091;1276;139433;-61
2022/01/27 13:41:44;;;;;;;20.80;10.30;;;;;;;3.31;66.66;98897.45;221213;1274;139412;-63
2022/01/27 13:46:51;;;;;;;19.30;9.70;;;;;;;3.35;66.60;98896.97;221325;1276;139477;-57
2022/01/27 13:51:56;;;;;;;19.20;10.00;;;;;;;3.34;66.54;98891.56;221363;1275;139437;-61
2022/01/27 13:57:05;;;;;;;18.70;11.30;;;;;;;3.31;66.50;98883.41;221435;1276;138538;-59
2022/01/27 14:02:16;;;;;;;21.20;11.60;;;;;;;3.28;66.53;98881.08;221380;1274;139343;-61
2022/01/27 14:07:33;;;;;;;19.00;11.90;;;;;;;3.28;66.54;98878.95;221141;1276;139499;-60
2022/01/27 14:13:10;;;;;;;23.60;13.20;;;;;;;3.32;66.60;98878.66;221231;1276;140265;-60
2022/01/27 14:18:20;;;;;;;23.30;13.30;;;;;;;3.31;66.40;98879.92;221176;1274;139749;-62
2022/01/27 14:28:51;;;;;;;23.80;14.10;;;;;;;3.32;66.49;98886.55;221316;1275;140153;-62
2022/01/27 14:33:54;;;;;;;21.40;13.40;;;;;;;3.32;66.56;98878.46;221198;1277;140329;-63
2022/01/27 14:38:57;;;;;;;21.80;12.40;;;;;;;3.31;66.55;98878.16;221135;1276;140307;-63
2022/01/27 14:44:01;;;;;;;26.90;14.40;;;;;;;3.32;66.57;98878.82;221376;1276;139497;-62
2022/01/27 14:49:06;;;;;;;27.10;14.40;;;;;;;3.38;66.84;98870.74;221313;1276;139165;-65
2022/01/27 14:54:09;;;;;;;27.50;14.40;;;;;;;3.37;66.78;98859.36;221145;1275;140239;-62
2022/01/27 14:59:12;;;;;;;25.10;14.30;;;;;;;3.36;66.75;98864.11;221233;1276;140694;-64
2022/01/27 15:04:16;;;;;;;26.60;14.70;;;;;;;3.34;66.81;98860.73;221336;1276;139505;-62
2022/01/27 15:09:20;;;;;;;45.40;21.90;;;;;;;3.32;67.10;98856.73;221080;1276;141186;-58
2022/01/27 15:19:46;;;;;;;27.40;14.90;;;;;;;3.34;67.22;98855.77;221283;1275;139624;-62
2022/01/27 15:24:49;;;;;;;25.80;13.80;;;;;;;3.21;67.16;98859.58;221009;1275;142629;-62
2022/01/27 15:29:53;;;;;;;27.90;15.30;;;;;;;3.11;67.46;98864.84;221255;1277;140049;-61
2022/01/27 15:34:58;;;;;;;34.00;17.50;;;;;;;3.00;67.67;98866.41;221406;1276;139769;-61
2022/01/27 15:40:01;;;;;;;29.50;16.80;;;;;;;2.92;67.91;98865.31;220936;1275;139761;-61
2022/01/27 15:45:05;;;;;;;26.90;16.50;;;;;;;2.82;68.25;98864.96;221346;1275;139308;-60
2022/01/27 15:50:11;;;;;;;27.40;14.60;;;;;;;2.70;68.49;98863.77;221167;1276;139965;-62
2022/01/27 15:55:15;;;;;;;27.90;15.60;;;;;;;2.59;68.78;98863.61;221018;1275;139901;-61
2022/01/27 16:00:18;;;;;;;24.40;13.30;;;;;;;2.54;69.14;98855.17;220990;1277;139312;-61
2022/01/27 16:05:22;;;;;;;26.50;15.50;;;;;;;2.52;69.36;98853.14;220958;1276;140619;-60
2022/01/27 16:10:26;;;;;;;25.50;14.10;;;;;;;2.50;69.47;98840.95;220925;1275;283170;-62
2022/01/27 16:15:30;;;;;;;27.30;15.50;;;;;;;2.53;69.67;98832.45;221210;1276;140322;-61
2022/01/27 16:20:33;;;;;;;31.00;17.30;;;;;;;2.50;69.76;98830.98;221238;1276;142823;-58
2022/01/27 16:25:36;;;;;;;30.80;16.90;;;;;;;2.46;69.93;98827.60;221178;1275;139334;-62
2022/01/27 16:30:39;;;;;;;25.60;14.10;;;;;;;2.46;70.26;98835.48;221213;1274;139894;-68
2022/01/27 16:35:42;;;;;;;29.10;16.90;;;;;;;2.49;70.29;98845.88;221221;1275;140980;-61
2022/01/27 16:40:46;;;;;;;97.30;61.10;;;;;;;2.47;70.37;98847.89;221201;1275;139875;-62
2022/01/27 16:45:49;;;;;;;33.40;19.60;;;;;;;2.62;70.98;98843.02;221245;1277;139750;-59
2022/01/27 16:50:52;;;;;;;25.30;15.20;;;;;;;2.68;70.56;98833.54;221068;1276;139891;-60
2022/01/27 16:55:55;;;;;;;29.10;16.50;;;;;;;2.56;70.48;98826.39;221200;1275;139684;-62
2022/01/27 17:00:59;;;;;;;27.70;16.50;;;;;;;2.48;70.55;98819.67;221223;1275;139467;-61
2022/01/27 17:06:02;;;;;;;31.80;18.00;;;;;;;2.43;70.86;98828.04;221326;1276;140103;-63
2022/01/27 17:11:05;;;;;;;28.30;15.60;;;;;;;2.42;71.05;98818.99;221192;1275;140642;-60
2022/01/27 17:16:09;;;;;;;29.80;17.60;;;;;;;2.40;71.18;98809.24;221229;1275;140084;-61
2022/01/27 17:21:13;;;;;;;30.10;18.50;;;;;;;2.39;71.21;98806.14;221259;1275;139588;-60
2022/01/27 17:26:16;;;;;;;36.90;21.10;;;;;;;2.42;71.66;98802.17;221162;1277;139234;-61
2022/01/27 17:31:19;;;;;;;29.80;16.50;;;;;;;2.53;71.55;98797.24;221239;1275;139948;-60
2022/01/27 17:36:22;;;;;;;27.90;18.00;;;;;;;2.51;71.40;98795.20;221126;1275;139843;-60
2022/01/27 17:41:29;;;;;;;23.80;13.70;;;;;;;2.48;71.44;98800.23;220990;1276;140032;-60
2022/01/27 17:46:32;;;;;;;26.70;16.60;;;;;;;2.46;71.65;98801.86;221291;1276;140335;-61
2022/01/27 17:51:35;;;;;;;29.30;16.20;;;;;;;2.47;71.83;98795.02;221179;1275;140688;-62
2022/01/27 17:56:38;;;;;;;28.20;15.80;;;;;;;2.47;71.95;98778.74;221114;1276;140350;-65
2022/01/27 18:01:42;;;;;;;25.20;15.80;;;;;;;2.46;71.91;98780.70;221129;1276;140327;-64
2022/01/27 18:06:46;;;;;;;26.00;14.90;;;;;;;2.45;71.91;98783.70;221163;1277;139908;-64
2022/01/27 18:11:49;;;;;;;24.50;15.00;;;;;;;2.45;72.09;98789.98;221093;1277;139612;-64
2022/01/27 18:16:55;;;;;;;19.90;13.00;;;;;;;2.47;72.08;98786.27;221128;1276;139711;-62
2022/01/27 18:21:58;;;;;;;21.30;13.80;;;;;;;2.47;72.15;98774.17;221239;1275;139896;-62
2022/01/27 18:27:01;;;;;;;29.30;17.10;;;;;;;2.46;72.40;98772.98;221322;1276;140560;-61
2022/01/27 18:32:04;;;;;;;26.10;16.90;;;;;;;2.51;72.44;98774.05;220979;1276;139867;-61
2022/01/27 18:37:08;;;;;;;48.10;28.30;;;;;;;2.54;72.55;98767.43;221258;1275;141064;-62
2022/01/27 18:42:10;;;;;;;29.90;18.20;;;;;;;2.68;73.12;98766.63;221336;1276;139417;-64
2022/01/27 18:47:13;;;;;;;22.50;14.20;;;;;;;2.81;72.85;98762.86;221071;1276;140091;-62
2022/01/27 18:52:17;;;;;;;21.50;14.40;;;;;;;2.76;72.40;98759.34;221254;1276;139785;-59
2022/01/27 18:57:20;;;;;;;27.50;16.30;;;;;;;2.64;72.48;98758.70;221304;1276;140095;-64
2022/01/27 19:02:23;;;;;;;24.40;13.40;;;;;;;2.58;72.63;98760.82;221260;1276;142579;-64
2022/01/27 19:07:26;;;;;;;26.90;17.10;;;;;;;2.55;72.73;98760.23;221234;1276;140035;-62
2022/01/27 19:12:29;;;;;;;25.90;15.80;;;;;;;2.56;72.76;98764.40;221261;1276;141613;-63
2022/01/27 19:17:32;;;;;;;26.10;14.50;;;;;;;2.56;72.89;98762.85;221288;1277;140969;-60
2022/01/27 19:22:36;;;;;;;24.00;15.30;;;;;;;2.57;72.93;98761.38;221148;1276;139682;-62
2022/01/27 19:27:40;;;;;;;18.10;11.60;;;;;;;2.60;72.95;98761.81;221209;1276;140081;-62
2022/01/27 19:32:45;;;;;;;24.40;14.80;;;;;;;2.61;73.00;98763.20;221283;1276;139994;-62
2022/01/27 19:37:50;;;;;;;24.10;15.50;;;;;;;2.61;73.10;98756.19;221318;1277;139496;-61
2022/01/27 19:42:53;;;;;;;20.30;12.70;;;;;;;2.60;73.20;98760.92;221226;1276;140088;-65
2022/01/27 19:48:04;;;;;;;23.50;14.00;;;;;;;2.64;73.19;98752.41;221225;1276;139226;-64
2022/01/27 19:53:07;;;;;;;24.20;14.90;;;;;;;2.70;73.11;98744.33;221269;1276;139184;-63
2022/01/27 19:58:10;;;;;;;21.90;13.60;;;;;;;2.72;73.15;98737.09;221018;1276;139570;-61
2022/01/27 20:03:13;;;;;;;20.20;12.60;;;;;;;2.76;73.37;98738.34;221332;1276;139531;-64
2022/01/27 20:08:16;;;;;;;19.80;13.10;;;;;;;2.83;73.30;98734.92;221374;1275;139525;-63
2022/01/27 20:13:20;;;;;;;23.50;14.00;;;;;;;2.86;73.08;98737.44;221267;1277;139425;-61
2022/01/27 20:18:25;;;;;;;20.80;13.10;;;;;;;2.89;73.18;98731.03;221406;1276;139026;-64
2022/01/27 20:23:30;;;;;;;26.00;14.40;;;;;;;2.92;73.07;98733.91;221138;1277;139451;-61
2022/01/27 20:28:35;;;;;;;22.70;14.40;;;;;;;2.96;73.19;98732.87;221247;1276;139833;-60
2022/01/27 20:33:38;;;;;;;22.40;13.80;;;;;;;2.98;73.08;98733.14;221228;1276;139573;-62
2022/01/27 20:38:43;;;;;;;23.30;13.70;;;;;;;3.04;72.95;98732.73;221340;1276;139973;-61
2022/01/27 20:43:46;;;;;;;22.40;13.00;;;;;;;3.12;73.04;98725.64;221299;1277;139658;-62
2022/01/27 20:48:49;;;;;;;22.60;12.70;;;;;;;3.20;72.87;98720.40;221303;1276;139155;-61
2022/01/27 20:53:56;;;;;;;21.90;12.50;;;;;;;3.23;72.74;98716.84;221119;1276;233092;-62
2022/01/27 20:59:00;;;;;;;23.50;13.80;;;;;;;3.26;73.11;98718.27;221279;1276;139648;-61
2022/01/27 21:04:23;;;;;;;18.50;10.60;;;;;;;3.35;72.91;98714.27;221282;1276;139898;-61
2022/01/27 21:09:28;;;;;;;20.00;11.90;;;;;;;3.38;72.64;98709.61;221327;1276;140150;-61
2022/01/27 21:14:31;;;;;;;20.40;12.00;;;;;;;3.37;72.72;98704.20;221128;1277;139098;-62
2022/01/27 21:19:34;;;;;;;19.60;11.10;;;;;;;3.37;72.60;98703.83;221258;1276;139984;-64
2022/01/27 21:24:38;;;;;;;20.30;11.10;;;;;;;3.37;72.51;98698.23;221258;1275;139891;-60
2022/01/27 21:29:41;;;;;;;20.90;12.70;;;;;;;3.37;72.42;98688.60;221271;1276;139336;-60
2022/01/27 21:34:53;;;;;;;21.20;11.80;;;;;;;3.39;72.32;98685.34;221249;1276;139249;-62
2022/01/27 21:40:02;;;;;;;20.10;12.80;;;;;;;3.39;72.41;98689.73;221264;1276;139786;-60
2022/01/27 21:45:06;;;;;;;19.80;11.40;;;;;;;3.44;72.33;98689.73;221379;1277;140151;-60
2022/01/27 21:50:12;;;;;;;17.20;11.90;;;;;;;3.48;72.12;98682.00;221088;1277;139797;-61
2022/01/27 21:55:15;;;;;;;19.50;12.10;;;;;;;3.53;72.15;98691.98;220975;1277;139866;-59
2022/01/27 22:00:18;;;;;;;21.50;11.70;;;;;;;3.55;72.17;98676.66;221374;1276;139306;-60
2022/01/27 22:05:25;;;;;;;16.20;9.80;;;;;;;3.59;72.14;98664.40;221258;1276;139617;-60
2022/01/27 22:10:29;;;;;;;16.10;9.90;;;;;;;3.56;72.00;98673.63;221216;1276;139813;-60
2022/01/27 22:15:32;;;;;;;15.80;9.30;;;;;;;3.55;71.93;98667.34;221368;1276;139131;-59
2022/01/27 22:20:35;;;;;;;15.30;8.80;;;;;;;3.54;71.82;98665.30;221231;1276;138964;-61
2022/01/27 22:25:38;;;;;;;14.60;8.20;;;;;;;3.52;71.89;98650.62;221313;1276;139349;-61
2022/01/27 22:30:41;;;;;;;13.30;7.60;;;;;;;3.54;72.01;98651.24;221383;1277;139856;-61
2022/01/27 22:35:46;;;;;;;11.70;7.40;;;;;;;3.57;71.91;98652.02;221226;1276;139793;-63
2022/01/27 22:40:49;;;;;;;12.10;7.00;;;;;;;3.58;72.07;98659.52;221268;1276;140286;-63
2022/01/27 22:45:52;;;;;;;15.00;7.80;;;;;;;3.59;71.73;98658.96;221247;1276;139392;-61
2022/01/27 22:50:55;;;;;;;12.50;7.00;;;;;;;3.59;71.73;98651.41;221402;1277;141604;-63
2022/01/27 22:55:59;;;;;;;13.40;8.40;;;;;;;3.59;71.77;98653.55;221275;1276;141012;-62
2022/01/27 23:01:03;;;;;;;10.30;7.00;;;;;;;3.60;71.94;98645.08;221258;1276;139276;-63
2022/01/27 23:06:06;;;;;;;11.20;6.50;;;;;;;3.60;71.57;98629.66;221212;1276;140258;-61
2022/01/27 23:11:11;;;;;;;12.70;7.50;;;;;;;3.61;71.74;98614.33;221269;1276;138907;-59
2022/01/27 23:21:42;;;;;;;9.20;6.40;;;;;;;3.61;71.49;98614.70;221359;1276;139708;-59
2022/01/27 23:26:49;;;;;;;10.20;6.40;;;;;;;3.59;71.59;98602.32;221197;1276;140783;-61
2022/01/27 23:31:52;;;;;;;11.40;7.00;;;;;;;3.55;71.52;98608.41;221248;1276;140133;-59
2022/01/27 23:37:00;;;;;;;11.70;6.60;;;;;;;3.54;71.80;98601.48;221167;1274;140838;-56
2022/01/27 23:42:22;;;;;;;10.80;6.70;;;;;;;3.54;71.58;98598.63;221121;1276;139699;-59
2022/01/27 23:47:54;;;;;;;13.70;7.30;;;;;;;3.55;71.55;98591.77;221094;1276;139393;-62
2022/01/27 23:52:59;;;;;;;14.00;7.10;;;;;;;3.48;71.69;98591.00;221207;1276;139340;-61
2022/01/27 23:58:12;;;;;;;11.60;7.30;;;;;;;3.44;71.56;98591.02;221247;1275;139300;-61
